Time;durP1;ratioP1;P1;durP2;ratioP2;P2;SDS_P1;SDS_P2;PMS_P1;PMS_P2;Temp;Humidity;BMP_temperature;BMP_pressure;BME280_temperature;BME280_humidity;BME280_pressure;Samples;Min_cycle;Max_cycle;Signal;HPM_P1;HPM_P2
2021/03/29 00:09:30;;;;;;;26.20;16.83;;;;;;;2.37;64.51;100746.50;469705;1172;114331;-64
2021/03/29 00:19:35;;;;;;;24.50;15.30;;;;;;;2.47;63.78;100753.27;469919;1171;114515;-64
2021/03/29 00:29:39;;;;;;;22.80;13.17;;;;;;;2.58;63.90;100745.37;469917;1171;114472;-64
2021/03/29 00:39:44;;;;;;;20.13;12.93;;;;;;;2.62;63.34;100736.66;471526;1171;114093;-63
2021/03/29 00:49:48;;;;;;;25.47;13.60;;;;;;;2.68;63.48;100746.10;470025;1171;114016;-63
2021/03/29 00:59:52;;;;;;;23.17;13.17;;;;;;;2.78;63.52;100734.73;470494;1171;114760;-63
2021/03/29 01:09:56;;;;;;;23.13;12.60;;;;;;;2.86;63.68;100732.03;471695;1171;114849;-64
2021/03/29 01:20:19;;;;;;;23.37;12.87;;;;;;;2.97;64.27;100737.08;470388;1171;114149;-64
2021/03/29 01:30:24;;;;;;;22.90;11.90;;;;;;;3.07;63.75;100738.67;470160;1171;113998;-64
2021/03/29 01:40:29;;;;;;;17.80;11.55;;;;;;;3.20;64.01;100730.70;471301;1171;114316;-64
2021/03/29 01:50:36;;;;;;;20.85;11.55;;;;;;;3.26;64.69;100738.38;469743;1171;113982;-64
2021/03/29 02:00:44;;;;;;;23.23;14.58;;;;;;;3.34;65.33;100735.66;471245;1171;114321;-64
2021/03/29 02:10:49;;;;;;;21.25;12.95;;;;;;;3.54;66.23;100744.88;471172;1171;114341;-63
2021/03/29 02:20:54;;;;;;;19.00;11.80;;;;;;;3.60;66.20;100730.05;469964;1171;114898;-64
2021/03/29 02:31:00;;;;;;;19.30;12.00;;;;;;;3.67;65.67;100724.77;470162;1171;114172;-63
2021/03/29 02:41:05;;;;;;;22.18;12.93;;;;;;;3.56;66.00;100725.80;469712;1171;114314;-62
2021/03/29 02:51:11;;;;;;;17.50;11.90;;;;;;;3.51;66.56;100719.80;471000;1171;115174;-63
2021/03/29 03:01:16;;;;;;;18.93;11.43;;;;;;;3.46;67.05;100716.44;469553;1171;114122;-64
2021/03/29 03:11:21;;;;;;;18.97;13.40;;;;;;;3.52;67.52;100737.13;471349;1171;114523;-64
2021/03/29 03:21:24;;;;;;;20.30;11.63;;;;;;;3.75;68.06;100746.25;469787;1171;114273;-64
2021/03/29 03:31:28;;;;;;;20.40;14.13;;;;;;;3.88;68.08;100745.17;471628;1171;114143;-64
2021/03/29 03:41:33;;;;;;;14.60;10.37;;;;;;;3.88;67.95;100739.11;471151;1171;114983;-64
2021/03/29 03:51:38;;;;;;;13.60;9.95;;;;;;;3.88;67.48;100720.91;470487;1171;114470;-64
2021/03/29 04:01:54;;;;;;;15.40;8.55;;;;;;;3.89;67.34;100722.63;471130;1171;114082;-64
2021/03/29 04:11:58;;;;;;;23.30;10.65;;;;;;;3.92;67.09;100735.55;471236;1171;114424;-64
2021/03/29 04:22:02;;;;;;;18.00;10.25;;;;;;;3.93;67.29;100738.14;470050;1171;114463;-64
2021/03/29 04:32:09;;;;;;;17.67;11.03;;;;;;;4.02;67.24;100738.86;469797;1171;114456;-64
2021/03/29 04:42:13;;;;;;;21.57;11.57;;;;;;;4.15;66.72;100735.14;470000;1170;114475;-64
2021/03/29 04:52:17;;;;;;;14.60;9.00;;;;;;;4.29;67.37;100742.69;469587;1171;115162;-63
2021/03/29 05:02:20;;;;;;;14.73;10.53;;;;;;;4.41;67.43;100746.77;470020;1171;116912;-64
2021/03/29 05:12:24;;;;;;;18.10;9.60;;;;;;;4.55;67.54;100745.63;471246;1170;114339;-64
2021/03/29 05:22:28;;;;;;;19.87;10.73;;;;;;;4.61;67.57;100761.97;471333;1170;114161;-64
2021/03/29 05:32:32;;;;;;;21.40;12.30;;;;;;;4.75;67.78;100761.70;471348;1171;113978;-62
2021/03/29 05:42:35;;;;;;;17.60;10.23;;;;;;;5.04;68.73;100751.54;469600;1171;114006;-64
2021/03/29 05:52:40;;;;;;;28.53;14.33;;;;;;;5.30;68.26;100739.66;470906;1170;114173;-64
2021/03/29 06:02:44;;;;;;;16.80;12.00;;;;;;;5.67;68.50;100746.60;469706;1171;114563;-64
2021/03/29 06:12:50;;;;;;;17.83;11.20;;;;;;;6.11;67.89;100755.92;470958;1170;114318;-64
2021/03/29 06:22:54;;;;;;;19.40;10.53;;;;;;;6.19;67.60;100746.15;470474;1171;114292;-64
2021/03/29 06:33:07;;;;;;;15.87;11.33;;;;;;;6.45;67.51;100755.86;470053;1171;114202;-63
2021/03/29 06:43:22;;;;;;;16.70;10.53;;;;;;;6.75;66.80;100756.77;469241;1171;114643;-63
2021/03/29 06:53:27;;;;;;;20.35;12.10;;;;;;;7.18;66.15;100754.63;472232;1171;114765;-63
2021/03/29 07:03:31;;;;;;;24.80;13.57;;;;;;;7.61;65.75;100758.45;469713;1172;115023;-64
2021/03/29 07:13:36;;;;;;;17.40;12.10;;;;;;;8.11;65.13;100747.17;469473;1171;115722;-63
2021/03/29 07:23:41;;;;;;;19.07;12.40;;;;;;;9.14;64.40;100753.07;471797;1171;114447;-62
2021/03/29 07:33:53;;;;;;;13.37;9.57;;;;;;;10.46;62.20;100752.84;471534;1171;115417;-69
2021/03/29 07:44:12;;;;;;;19.77;10.43;;;;;;;10.73;60.29;100748.08;471452;1171;114251;-67
2021/03/29 07:54:54;;;;;;;14.73;9.27;;;;;;;11.88;59.93;100752.25;471465;1171;114948;-68
2021/03/29 08:05:04;;;;;;;13.87;9.43;;;;;;;13.99;57.30;100742.52;471410;1170;114338;-70
2021/03/29 08:15:14;;;;;;;14.43;10.00;;;;;;;13.26;55.25;100738.78;471401;1171;115069;-68
2021/03/29 08:25:31;;;;;;;13.27;7.80;;;;;;;12.89;55.63;100734.66;471106;1171;114958;-64
2021/03/29 08:35:37;;;;;;;13.80;7.30;;;;;;;15.02;53.33;100737.06;471264;1170;114240;-69
2021/03/29 08:45:49;;;;;;;16.27;8.73;;;;;;;16.20;51.71;100723.96;469720;1171;114689;-64
2021/03/29 08:55:53;;;;;;;12.60;7.03;;;;;;;16.22;50.05;100732.67;469707;1171;115929;-64
2021/03/29 09:06:12;;;;;;;9.90;5.53;;;;;;;15.46;49.09;100735.09;471096;1169;114358;-65
2021/03/29 09:16:16;;;;;;;13.57;6.30;;;;;;;14.78;49.12;100760.66;470218;1170;114737;-63
2021/03/29 09:26:29;;;;;;;6.90;5.97;;;;;;;14.11;50.11;100762.03;471307;1171;114924;-68
2021/03/29 09:36:33;;;;;;;10.73;7.47;;;;;;;13.55;50.29;100760.88;470902;1171;114080;-76
2021/03/29 09:46:37;;;;;;;11.87;5.80;;;;;;;13.53;50.95;100775.09;471026;1170;114838;-69
2021/03/29 09:56:41;;;;;;;10.50;5.80;;;;;;;13.52;50.07;100774.26;471184;1170;114030;-66
2021/03/29 10:06:52;;;;;;;15.50;7.07;;;;;;;13.26;50.99;100773.91;471012;1171;114221;-66
2021/03/29 10:16:56;;;;;;;8.17;5.63;;;;;;;13.17;51.09;100772.64;471591;1171;114203;-65
2021/03/29 10:27:01;;;;;;;13.85;6.95;;;;;;;13.45;51.36;100768.48;470608;1171;114337;-68
2021/03/29 10:37:18;;;;;;;8.35;5.55;;;;;;;13.60;51.09;100760.61;471440;1170;114389;-64
2021/03/29 10:47:23;;;;;;;16.40;7.05;;;;;;;13.70;50.71;100753.86;471008;1170;114195;-65
2021/03/29 10:57:27;;;;;;;10.70;5.50;;;;;;;14.43;50.08;100753.94;471350;1171;114435;-67
2021/03/29 11:07:31;;;;;;;10.28;5.83;;;;;;;14.88;49.33;100761.74;470848;1171;114049;-65
2021/03/29 11:17:37;;;;;;;8.67;4.80;;;;;;;14.85;49.83;100754.88;470992;1171;115017;-67
2021/03/29 11:27:42;;;;;;;14.37;5.97;;;;;;;15.06;49.47;100751.78;473344;1169;114754;-66
2021/03/29 11:37:45;;;;;;;14.57;5.93;;;;;;;14.85;48.83;100756.66;471387;1169;114837;-66
2021/03/29 11:47:49;;;;;;;7.30;4.65;;;;;;;14.08;49.80;100746.38;471491;1170;114255;-67
2021/03/29 11:57:55;;;;;;;10.40;5.45;;;;;;;13.89;50.48;100744.00;471488;1170;114627;-68
2021/03/29 12:08:18;;;;;;;6.90;4.97;;;;;;;13.75;51.75;100742.17;471570;1169;114339;-66
2021/03/29 12:18:33;;;;;;;8.37;4.70;;;;;;;14.12;51.75;100727.63;471558;1169;114734;-66
2021/03/29 12:28:42;;;;;;;8.20;5.27;;;;;;;14.10;51.85;100731.29;471202;1170;114233;-67
2021/03/29 12:38:53;;;;;;;11.50;6.20;;;;;;;13.76;52.38;100723.62;455560;1170;20002140;-67
2021/03/29 12:48:57;;;;;;;10.83;5.83;;;;;;;13.73;53.02;100715.86;471185;1167;114645;-68
2021/03/29 12:59:04;;;;;;;11.20;4.73;;;;;;;13.50;53.48;100712.78;471525;1168;114969;-67
2021/03/29 13:09:17;;;;;;;8.95;4.55;;;;;;;13.34;54.18;100706.69;471478;1169;114249;-67
2021/03/29 13:19:21;;;;;;;8.27;3.33;;;;;;;13.07;55.40;100689.72;471562;1170;113981;-70
2021/03/29 13:29:25;;;;;;;15.80;11.60;;;;;;;13.27;55.95;100685.95;471280;1168;114424;-69
2021/03/29 13:39:29;;;;;;;7.30;4.30;;;;;;;13.55;56.20;100680.86;471560;1169;114513;-68
2021/03/29 13:49:34;;;;;;;8.25;5.30;;;;;;;13.52;56.13;100688.96;471593;1169;113968;-70
2021/03/29 13:59:38;;;;;;;11.73;6.30;;;;;;;13.55;56.55;100684.36;463999;1170;10001043;-65
2021/03/29 14:09:42;;;;;;;8.23;5.07;;;;;;;13.35;56.59;100690.78;482054;1170;116501;-73
2021/03/29 14:19:46;;;;;;;9.27;6.40;;;;;;;13.18;57.40;100676.77;471183;1170;113989;-71
2021/03/29 14:29:50;;;;;;;10.57;5.60;;;;;;;13.02;57.28;100671.52;472314;1169;114038;-67
2021/03/29 14:40:01;;;;;;;18.57;6.10;;;;;;;12.68;57.77;100654.14;472098;1170;114702;-68
2021/03/29 14:50:07;;;;;;;9.17;5.67;;;;;;;12.54;57.86;100655.77;472206;1170;114299;-69
2021/03/29 15:00:15;;;;;;;12.00;7.00;;;;;;;12.38;58.13;100645.22;471805;1169;113926;-68
2021/03/29 15:10:18;;;;;;;;;;;;;;;12.37;58.85;100638.26;472569;1171;114143;-67
2021/03/29 15:20:22;;;;;;;15.45;7.85;;;;;;;12.05;59.34;100623.25;471727;1168;100308;-67
2021/03/29 15:30:27;;;;;;;9.63;6.53;;;;;;;11.98;60.17;100634.17;472088;1169;114982;-67
2021/03/29 15:40:31;;;;;;;10.75;8.65;;;;;;;11.78;60.87;100633.47;471639;1168;114084;-67
2021/03/29 15:50:35;;;;;;;11.00;8.55;;;;;;;11.43;62.15;100631.72;472002;1169;114582;-68
2021/03/29 16:00:40;;;;;;;13.00;8.70;;;;;;;11.20;63.14;100643.41;472183;1167;115076;-67
2021/03/29 16:10:44;;;;;;;14.00;7.87;;;;;;;10.95;64.42;100652.48;472020;1169;114271;-69
2021/03/29 16:20:48;;;;;;;15.87;10.57;;;;;;;10.64;65.31;100657.43;463750;1169;10001918;-67
2021/03/29 16:30:52;;;;;;;15.23;8.87;;;;;;;10.40;66.83;100683.05;472437;1170;115926;-70
2021/03/29 16:40:56;;;;;;;13.10;10.60;;;;;;;10.20;67.81;100683.93;472524;1168;114590;-66
2021/03/29 16:51:01;;;;;;;16.40;10.55;;;;;;;10.14;68.61;100681.60;472401;1170;114938;-66
2021/03/29 17:01:05;;;;;;;22.60;13.40;;;;;;;9.99;69.34;100689.24;473185;1168;116152;-72
2021/03/29 17:11:09;;;;;;;20.83;15.23;;;;;;;9.84;69.95;100689.89;472665;1169;114396;-68
2021/03/29 17:21:14;;;;;;;22.30;17.40;;;;;;;9.71;70.62;100687.80;472481;1170;115969;-72
2021/03/29 17:31:18;;;;;;;24.83;19.17;;;;;;;9.58;71.13;100682.25;472011;1171;114155;-71
2021/03/29 17:41:22;;;;;;;28.70;17.37;;;;;;;9.43;71.73;100680.25;480092;1170;114985;-69
2021/03/29 17:51:26;;;;;;;35.37;20.57;;;;;;;9.29;72.54;100689.55;471494;1170;114472;-70
2021/03/29 18:01:30;;;;;;;50.57;28.60;;;;;;;9.21;73.04;100691.62;471605;1168;115204;-71
2021/03/29 18:11:34;;;;;;;31.80;19.27;;;;;;;9.13;73.62;100696.34;471652;1168;114303;-71
2021/03/29 18:21:38;;;;;;;31.53;18.23;;;;;;;9.19;73.65;100712.67;471972;1168;114498;-62
2021/03/29 18:31:47;;;;;;;28.30;19.87;;;;;;;9.23;74.04;100719.48;463509;1169;10001815;-71
2021/03/29 18:41:59;;;;;;;29.70;18.60;;;;;;;9.21;74.16;100717.83;471431;1168;114678;-64
2021/03/29 18:52:04;;;;;;;60.43;30.43;;;;;;;9.20;74.22;100723.98;471272;1170;114410;-64
2021/03/29 19:02:10;;;;;;;36.33;19.70;;;;;;;9.12;74.64;100734.78;471724;1170;114802;-64
2021/03/29 19:12:15;;;;;;;36.90;20.85;;;;;;;8.98;74.88;100743.17;471909;1169;114183;-65
2021/03/29 19:22:21;;;;;;;33.30;18.45;;;;;;;8.95;75.36;100749.41;471873;1170;114294;-65
2021/03/29 19:32:24;;;;;;;23.60;14.47;;;;;;;8.79;75.68;100740.41;471530;1171;114498;-68
2021/03/29 19:42:28;;;;;;;18.10;11.73;;;;;;;8.78;76.06;100736.09;472037;1171;114479;-68
2021/03/29 19:52:32;;;;;;;24.83;14.17;;;;;;;8.76;76.37;100730.90;471935;1170;114529;-66
2021/03/29 20:02:37;;;;;;;23.93;15.80;;;;;;;8.76;76.98;100727.44;472031;1171;114803;-68
2021/03/29 20:12:41;;;;;;;19.73;14.97;;;;;;;8.81;76.91;100725.48;472463;1169;114386;-68
2021/03/29 20:22:45;;;;;;;24.50;17.15;;;;;;;8.90;76.97;100730.38;472158;1171;114178;-68
2021/03/29 20:32:48;;;;;;;24.43;18.13;;;;;;;8.93;77.11;100719.77;472507;1170;114211;-66
2021/03/29 20:42:52;;;;;;;23.70;14.97;;;;;;;8.96;77.25;100714.44;472176;1168;114650;-67
2021/03/29 20:52:56;;;;;;;54.40;30.10;;;;;;;8.96;77.34;100716.19;472237;1169;114787;-67
2021/03/29 21:03:00;;;;;;;39.50;24.67;;;;;;;8.95;77.31;100715.35;472436;1169;114544;-67
2021/03/29 21:13:05;;;;;;;30.17;21.37;;;;;;;9.03;77.35;100712.42;472345;1167;114510;-66
2021/03/29 21:23:09;;;;;;;24.73;17.67;;;;;;;9.01;77.41;100721.25;471876;1170;114898;-67
2021/03/29 21:33:15;;;;;;;26.03;17.17;;;;;;;9.02;77.40;100726.44;473028;1171;115624;-66
2021/03/29 21:43:20;;;;;;;27.60;19.73;;;;;;;9.04;77.56;100714.13;463416;1168;10001408;-70
2021/03/29 21:53:25;;;;;;;42.15;21.65;;;;;;;8.99;78.24;100718.67;475967;1170;114951;-72
2021/03/29 22:03:29;;;;;;;27.65;19.30;;;;;;;8.99;77.91;100725.70;471612;1171;114510;-68
2021/03/29 22:13:33;;;;;;;28.83;19.87;;;;;;;9.00;77.98;100715.14;471588;1168;114832;-68
2021/03/29 22:23:39;;;;;;;31.27;20.87;;;;;;;9.07;77.97;100713.16;471793;1170;114202;-68
2021/03/29 22:33:46;;;;;;;23.93;19.80;;;;;;;9.08;78.02;100714.86;471650;1170;114397;-68
2021/03/29 22:43:50;;;;;;;30.30;20.53;;;;;;;9.03;78.03;100716.80;471971;1170;114594;-67
2021/03/29 22:53:54;;;;;;;24.10;17.30;;;;;;;8.96;78.12;100706.58;472530;1171;114989;-69
2021/03/29 23:03:58;;;;;;;23.63;17.17;;;;;;;8.95;78.34;100707.49;472099;1170;114898;-68
2021/03/29 23:14:01;;;;;;;21.80;15.57;;;;;;;8.90;78.63;100712.05;471703;1169;115068;-67
2021/03/29 23:24:07;;;;;;;23.85;16.15;;;;;;;8.90;78.30;100706.80;471687;1170;114600;-66
2021/03/29 23:34:11;;;;;;;27.83;17.90;;;;;;;8.89;78.64;100704.23;471996;1169;116255;-67
2021/03/29 23:44:14;;;;;;;23.10;17.33;;;;;;;8.96;78.73;100711.81;471549;1170;114246;-67
2021/03/29 23:54:18;;;;;;;28.35;19.20;;;;;;;8.89;78.88;100712.09;472218;1169;114198;-68
